Time;durP1;ratioP1;P1;durP2;ratioP2;P2;SDS_P1;SDS_P2;PMS_P1;PMS_P2;Temp;Humidity;BMP_temperature;BMP_pressure;BME280_temperature;BME280_humidity;BME280_pressure;Samples;Min_cycle;Max_cycle;Signal;HPM_P1;HPM_P2
2020/12/06 00:01:36;;;;;;;26.90;18.05;;;3.10;99.90;;;;;;5072210;28;20020;-79
2020/12/06 00:04:07;;;;;;;31.70;20.40;;;3.10;99.90;;;;;;5073493;28;20021;-79
2020/12/06 00:06:33;;;;;;;28.83;18.63;;;3.10;99.90;;;;;;5073488;28;20048;-79
2020/12/06 00:09:00;;;;;;;31.23;18.73;;;3.10;99.90;;;;;;5073669;28;20113;-79
2020/12/06 00:11:25;;;;;;;28.73;19.48;;;3.10;99.90;;;;;;5072094;28;20052;-79
2020/12/06 00:13:51;;;;;;;27.02;17.55;;;3.10;99.90;;;;;;5072165;28;20020;-79
2020/12/06 00:16:18;;;;;;;27.15;17.77;;;3.10;99.90;;;;;;5071828;28;20522;-79
2020/12/06 00:18:46;;;;;;;29.40;19.35;;;3.20;99.90;;;;;;5088870;28;20025;-82
2020/12/06 00:21:13;;;;;;;34.25;21.77;;;3.20;99.90;;;;;;5088852;28;20066;-80
2020/12/06 00:23:39;;;;;;;25.70;16.15;;;3.10;99.90;;;;;;5088898;28;20021;-80
2020/12/06 00:26:04;;;;;;;31.60;19.88;;;3.10;99.90;;;;;;5071998;28;20555;-80
2020/12/06 00:28:30;;;;;;;32.25;20.02;;;3.20;99.90;;;;;;5071974;28;20024;-80
2020/12/06 00:30:56;;;;;;;24.67;17.30;;;3.20;99.90;;;;;;5071964;28;20021;-81
2020/12/06 00:33:22;;;;;;;28.15;18.67;;;3.20;99.90;;;;;;5071908;28;20028;-80
2020/12/06 00:35:47;;;;;;;27.15;18.02;;;3.20;99.90;;;;;;5071919;28;20388;-79
2020/12/06 00:38:13;;;;;;;26.30;17.05;;;3.20;99.90;;;;;;5071862;28;20032;-81
2020/12/06 00:40:39;;;;;;;28.73;18.85;;;3.30;99.90;;;;;;5073673;28;20028;-79
2020/12/06 00:43:05;;;;;;;32.10;20.92;;;3.20;99.90;;;;;;5073122;28;20028;-81
2020/12/06 00:45:30;;;;;;;29.65;18.02;;;3.30;99.90;;;;;;5073012;28;20123;-80
2020/12/06 00:47:56;;;;;;;27.10;17.80;;;3.30;99.90;;;;;;5073045;28;20052;-80
2020/12/06 00:50:22;;;;;;;28.33;18.90;;;3.30;99.90;;;;;;5074112;28;20024;-81
2020/12/06 00:52:48;;;;;;;27.52;16.88;;;3.30;99.90;;;;;;5076870;28;20402;-81
2020/12/06 00:55:13;;;;;;;31.85;19.67;;;3.30;99.90;;;;;;5075507;28;20480;-80
2020/12/06 00:57:42;;;;;;;22.58;15.55;;;3.40;99.90;;;;;;5075402;28;20052;-80
2020/12/06 01:00:10;;;;;;;36.40;20.65;;;3.40;99.90;;;;;;5092401;28;20024;-81
2020/12/06 01:02:36;;;;;;;37.60;22.88;;;3.40;99.90;;;;;;5076889;28;20025;-81
2020/12/06 01:05:03;;;;;;;30.10;18.75;;;3.30;99.90;;;;;;5076909;28;20070;-81
2020/12/06 01:07:33;;;;;;;34.13;19.98;;;3.30;99.90;;;;;;5076545;28;20024;-81
2020/12/06 01:09:58;;;;;;;36.20;22.33;;;3.30;99.90;;;;;;5075260;28;20025;-80
2020/12/06 01:12:24;;;;;;;27.88;17.90;;;3.20;99.90;;;;;;5075195;28;20027;-81
2020/12/06 01:14:49;;;;;;;29.85;18.90;;;3.20;99.90;;;;;;5076458;28;20024;-80
2020/12/06 01:17:16;;;;;;;29.60;18.73;;;3.20;99.90;;;;;;5076172;28;20119;-80
2020/12/06 01:19:41;;;;;;;28.10;18.67;;;3.30;99.90;;;;;;5076389;28;20024;-80
2020/12/06 01:22:07;;;;;;;22.15;15.27;;;3.30;99.90;;;;;;5075074;28;20521;-80
2020/12/06 01:24:33;;;;;;;29.42;17.90;;;3.40;99.90;;;;;;5075026;28;20074;-80
2020/12/06 01:26:58;;;;;;;31.55;19.75;;;3.30;99.90;;;;;;5076220;28;20056;-80
2020/12/06 01:29:24;;;;;;;27.17;18.42;;;3.30;99.90;;;;;;5074909;28;20024;-80
2020/12/06 01:31:50;;;;;;;34.90;19.55;;;3.30;99.90;;;;;;5074908;28;20021;-80
2020/12/06 01:34:16;;;;;;;30.70;18.77;;;3.30;99.90;;;;;;5076094;28;20387;-80
2020/12/06 01:36:42;;;;;;;30.83;19.25;;;3.30;99.90;;;;;;5075999;28;20499;-80
2020/12/06 01:39:09;;;;;;;24.58;16.60;;;3.30;99.90;;;;;;5076009;28;20024;-80
2020/12/06 01:41:35;;;;;;;35.35;21.48;;;3.30;99.90;;;;;;5091532;28;20021;-80
2020/12/06 01:44:03;;;;;;;34.63;21.98;;;3.20;99.90;;;;;;5091541;28;20503;-80
2020/12/06 01:46:30;;;;;;;35.17;21.50;;;3.10;99.90;;;;;;5091423;28;20024;-80
2020/12/06 01:48:56;;;;;;;41.17;22.95;;;3.00;99.90;;;;;;5091423;28;20029;-80
2020/12/06 01:51:23;;;;;;;33.03;21.10;;;2.90;99.90;;;;;;5091389;28;20495;-80
2020/12/06 01:53:51;;;;;;;33.45;20.58;;;2.80;99.90;;;;;;5075809;28;20548;-80
2020/12/06 01:56:17;;;;;;;28.88;18.23;;;2.90;99.90;;;;;;5091225;28;20031;-81
2020/12/06 01:58:43;;;;;;;30.92;19.05;;;3.00;99.90;;;;;;5075668;28;20502;-80
2020/12/06 02:01:10;;;;;;;22.05;16.02;;;3.10;99.90;;;;;;5073941;28;20021;-80
2020/12/06 02:03:36;;;;;;;29.20;18.42;;;3.10;99.90;;;;;;5075551;28;20020;-80
2020/12/06 02:06:03;;;;;;;29.40;17.52;;;3.20;99.90;;;;;;5075555;28;20020;-80
2020/12/06 02:08:29;;;;;;;29.58;18.77;;;3.30;99.90;;;;;;5091053;28;20028;-80
2020/12/06 02:10:55;;;;;;;27.48;17.92;;;3.30;99.90;;;;;;5091027;28;20475;-80
2020/12/06 02:13:21;;;;;;;26.17;17.48;;;3.30;99.90;;;;;;5074153;28;20039;-79
2020/12/06 02:15:48;;;;;;;25.27;16.58;;;3.40;99.90;;;;;;5090729;28;20063;-80
2020/12/06 02:18:14;;;;;;;25.95;17.35;;;3.40;99.90;;;;;;5074040;28;20028;-80
2020/12/06 02:20:41;;;;;;;26.77;17.33;;;3.50;99.90;;;;;;5090896;28;20480;-80
2020/12/06 02:23:07;;;;;;;28.40;17.48;;;3.40;99.90;;;;;;5090754;28;20021;-80
2020/12/06 02:25:39;;;;;;;27.00;17.10;;;3.40;99.90;;;;;;5090703;28;20498;-80
2020/12/06 02:28:09;;;;;;;27.48;17.70;;;3.40;99.90;;;;;;5090739;28;20028;-80
2020/12/06 02:30:36;;;;;;;31.30;18.60;;;3.40;99.90;;;;;;5073714;28;20032;-80
2020/12/06 02:33:03;;;;;;;23.40;15.57;;;3.30;99.90;;;;;;5073740;28;20033;-80
2020/12/06 02:35:29;;;;;;;21.10;14.25;;;3.40;99.90;;;;;;5090561;28;20025;-80
2020/12/06 02:37:55;;;;;;;20.05;14.80;;;3.40;99.90;;;;;;5073529;28;20395;-80
2020/12/06 02:40:21;;;;;;;21.05;13.60;;;3.40;99.90;;;;;;5074850;28;20016;-80
2020/12/06 02:42:46;;;;;;;29.83;17.33;;;3.40;99.90;;;;;;5075015;28;20016;-80
2020/12/06 02:45:12;;;;;;;23.17;15.32;;;3.40;99.90;;;;;;5074973;28;20100;-80
2020/12/06 02:47:38;;;;;;;22.90;15.25;;;3.30;99.90;;;;;;5073356;28;20024;-80
2020/12/06 02:50:05;;;;;;;21.38;14.45;;;3.40;99.90;;;;;;5073358;28;20024;-80
2020/12/06 02:52:31;;;;;;;22.17;14.40;;;3.50;99.90;;;;;;5090196;28;20064;-80
2020/12/06 02:54:57;;;;;;;22.17;14.27;;;3.40;99.90;;;;;;5073258;28;20067;-80
2020/12/06 02:57:23;;;;;;;20.00;13.70;;;3.40;99.90;;;;;;5090130;28;20494;-80
2020/12/06 02:59:48;;;;;;;21.23;14.40;;;3.30;99.90;;;;;;5073163;28;20225;-80
2020/12/06 03:02:14;;;;;;;19.73;13.57;;;3.20;99.90;;;;;;5073113;28;20137;-80
2020/12/06 03:04:40;;;;;;;18.77;12.63;;;3.20;99.90;;;;;;5073079;28;20376;-80
2020/12/06 03:07:06;;;;;;;22.02;14.05;;;3.30;99.90;;;;;;5073009;28;20032;-80
2020/12/06 03:09:32;;;;;;;19.33;13.77;;;3.20;99.90;;;;;;5074482;28;20372;-80
2020/12/06 03:11:57;;;;;;;21.40;14.18;;;3.20;99.90;;;;;;5089122;28;20021;-80
2020/12/06 03:14:23;;;;;;;23.25;14.75;;;3.20;99.90;;;;;;5074130;28;20082;-80
2020/12/06 03:16:49;;;;;;;22.95;15.55;;;3.10;99.90;;;;;;5072596;28;20491;-80
2020/12/06 03:19:14;;;;;;;24.02;14.52;;;3.00;99.90;;;;;;5074083;28;20017;-80
2020/12/06 03:21:40;;;;;;;20.42;13.45;;;3.00;99.90;;;;;;5072777;28;20020;-80
2020/12/06 03:24:06;;;;;;;23.23;14.70;;;3.00;99.90;;;;;;5074266;28;20349;-80
2020/12/06 03:26:31;;;;;;;20.58;13.57;;;3.00;99.90;;;;;;5072702;28;20017;-80
2020/12/06 03:28:57;;;;;;;20.65;13.52;;;3.00;99.90;;;;;;5089469;28;20016;-80
2020/12/06 03:31:23;;;;;;;20.88;14.13;;;3.10;99.90;;;;;;5072622;28;20089;-80
2020/12/06 03:33:49;;;;;;;18.85;13.60;;;3.10;99.90;;;;;;5072564;28;20020;-80
2020/12/06 03:36:15;;;;;;;23.00;14.88;;;3.10;99.90;;;;;;5072464;28;20074;-80
2020/12/06 03:38:40;;;;;;;21.17;15.15;;;3.10;99.90;;;;;;5073768;28;20035;-80
2020/12/06 03:41:06;;;;;;;23.77;16.38;;;3.10;99.90;;;;;;5072462;28;20381;-80
2020/12/06 03:43:32;;;;;;;21.65;14.02;;;3.10;99.90;;;;;;5072715;28;20035;-80
2020/12/06 03:45:57;;;;;;;21.02;14.38;;;3.10;99.90;;;;;;5073587;28;20371;-80
2020/12/06 03:48:23;;;;;;;17.75;12.77;;;3.10;99.90;;;;;;5072323;28;20032;-80
2020/12/06 03:50:49;;;;;;;21.38;14.80;;;3.20;99.90;;;;;;5072403;28;20112;-80
2020/12/06 03:53:14;;;;;;;18.75;12.68;;;3.20;99.90;;;;;;5073541;28;20035;-80
2020/12/06 03:55:40;;;;;;;21.67;14.40;;;3.20;99.90;;;;;;5072309;28;20056;-80
2020/12/06 03:58:08;;;;;;;25.40;16.48;;;3.20;99.90;;;;;;5072218;28;20095;-80
2020/12/06 04:00:35;;;;;;;27.17;17.95;;;3.20;99.90;;;;;;5072241;28;20021;-80
2020/12/06 04:03:00;;;;;;;22.15;14.48;;;3.20;99.90;;;;;;5072258;28;20142;-80
2020/12/06 04:05:26;;;;;;;16.40;12.25;;;3.20;99.90;;;;;;5073514;28;20478;-80
2020/12/06 04:07:52;;;;;;;28.05;17.00;;;3.30;99.90;;;;;;5072175;28;20024;-80
2020/12/06 04:10:19;;;;;;;18.73;13.23;;;3.30;99.90;;;;;;5073770;28;20147;-80
2020/12/06 04:12:45;;;;;;;19.95;13.07;;;3.20;99.90;;;;;;5089014;28;20040;-80
2020/12/06 04:15:11;;;;;;;18.88;12.77;;;3.30;99.90;;;;;;5073376;28;20081;-80
2020/12/06 04:17:38;;;;;;;22.55;14.95;;;3.40;99.90;;;;;;5071900;28;20049;-80
2020/12/06 04:20:05;;;;;;;18.20;13.13;;;3.30;99.90;;;;;;5088961;28;20543;-80
2020/12/06 04:22:31;;;;;;;18.65;12.43;;;3.30;99.90;;;;;;5088882;28;20017;-80
2020/12/06 04:24:56;;;;;;;20.77;15.13;;;3.20;99.90;;;;;;5076809;28;20039;-80
2020/12/06 04:27:22;;;;;;;19.02;13.60;;;3.30;99.90;;;;;;5076165;28;20031;-80
2020/12/06 04:29:48;;;;;;;19.75;13.70;;;3.20;99.90;;;;;;5076118;28;20027;-80
2020/12/06 04:32:14;;;;;;;23.15;14.90;;;3.20;99.90;;;;;;5077237;28;20103;-80
2020/12/06 04:34:39;;;;;;;17.63;12.60;;;3.20;99.90;;;;;;5076044;28;20029;-80
2020/12/06 04:37:07;;;;;;;19.33;13.88;;;3.20;99.90;;;;;;5092739;28;20384;-80
2020/12/06 04:39:33;;;;;;;18.40;12.48;;;3.10;99.90;;;;;;5093059;28;20021;-80
2020/12/06 04:42:02;;;;;;;20.35;13.75;;;3.20;99.90;;;;;;5075821;28;20052;-80
2020/12/06 04:44:28;;;;;;;25.23;16.80;;;3.30;99.90;;;;;;5092755;28;20021;-80
2020/12/06 04:47:02;;;;;;;24.23;15.10;;;3.30;99.90;;;;;;5077258;28;20078;-80
2020/12/06 04:49:44;;;;;;;26.50;18.20;;;3.40;99.90;;;;;;5092617;28;20035;-80
2020/12/06 04:52:18;;;;;;;35.42;16.30;;;3.30;99.90;;;;;;5076984;28;20028;-80
2020/12/06 04:54:51;;;;;;;67.60;16.23;;;3.30;99.90;;;;;;5092543;28;20063;-80
2020/12/06 04:57:18;;;;;;;147.70;20.70;;;3.40;99.90;;;;;;5092391;28;20365;-80
2020/12/06 04:59:46;;;;;;;204.30;19.42;;;3.20;99.90;;;;;;5092398;28;20024;-80
2020/12/06 05:02:18;;;;;;;262.77;22.95;;;3.20;99.90;;;;;;5076684;28;20063;-80
2020/12/06 05:04:47;;;;;;;188.18;19.92;;;3.20;99.90;;;;;;5076989;28;20537;-80
2020/12/06 05:07:16;;;;;;;292.20;23.55;;;3.20;99.90;;;;;;5092285;28;20028;-80
2020/12/06 05:09:47;;;;;;;117.20;21.40;;;3.10;99.90;;;;;;5092227;28;20365;-80
2020/12/06 05:12:12;;;;;;;124.75;17.83;;;3.10;99.90;;;;;;5076937;28;20024;-80
2020/12/06 05:14:38;;;;;;;77.90;18.27;;;3.10;99.90;;;;;;5092104;28;20028;-80
2020/12/06 05:17:05;;;;;;;50.75;16.90;;;3.20;99.90;;;;;;5074893;28;20055;-80
2020/12/06 05:19:31;;;;;;;48.22;17.58;;;3.10;99.90;;;;;;5092042;28;20020;-80
2020/12/06 05:21:56;;;;;;;26.08;14.65;;;3.20;99.90;;;;;;5091981;28;20107;-80
2020/12/06 05:24:23;;;;;;;52.42;20.92;;;3.20;99.90;;;;;;5091908;28;20384;-81
2020/12/06 05:26:50;;;;;;;42.97;18.05;;;3.10;99.90;;;;;;5074990;28;20028;-80
2020/12/06 05:29:17;;;;;;;46.28;20.95;;;3.10;99.90;;;;;;5076513;28;20025;-80
2020/12/06 05:31:43;;;;;;;36.35;18.35;;;3.20;99.90;;;;;;5091860;28;20369;-80
2020/12/06 05:34:09;;;;;;;34.53;19.48;;;3.20;99.90;;;;;;5074862;28;20024;-80
2020/12/06 05:36:41;;;;;;;30.77;17.70;;;3.20;99.90;;;;;;5073944;28;20068;-80
2020/12/06 05:39:07;;;;;;;29.42;17.45;;;3.20;99.90;;;;;;5074818;28;20486;-80
2020/12/06 05:41:33;;;;;;;35.47;19.63;;;3.20;99.90;;;;;;5074699;28;20119;-80
2020/12/06 05:44:10;;;;;;;30.50;19.02;;;3.20;99.90;;;;;;5076243;28;20056;-80
2020/12/06 05:46:36;;;;;;;34.47;18.85;;;3.20;99.90;;;;;;5091500;28;20073;-80
2020/12/06 05:49:04;;;;;;;34.67;20.33;;;3.10;99.90;;;;;;5074630;28;20368;-80
2020/12/06 05:51:30;;;;;;;31.50;17.98;;;3.10;99.90;;;;;;5091460;28;20533;-80
2020/12/06 05:53:57;;;;;;;33.38;20.88;;;3.00;99.90;;;;;;5091373;28;20017;-80
2020/12/06 05:56:23;;;;;;;34.92;20.75;;;3.10;99.90;;;;;;5091232;28;20027;-80
2020/12/06 05:58:50;;;;;;;27.65;18.30;;;3.10;99.90;;;;;;5074411;28;20025;-80
2020/12/06 06:01:17;;;;;;;30.23;18.40;;;3.20;99.90;;;;;;5091238;28;20418;-80
2020/12/06 06:03:47;;;;;;;36.58;21.02;;;3.10;99.90;;;;;;5074367;28;20131;-80
2020/12/06 06:06:24;;;;;;;37.35;21.83;;;3.20;99.90;;;;;;5091120;28;20023;-80
2020/12/06 06:08:51;;;;;;;24.50;15.52;;;3.20;99.90;;;;;;5091115;28;20498;-80
2020/12/06 06:11:24;;;;;;;35.17;19.67;;;3.10;99.90;;;;;;5091075;28;20155;-81
2020/12/06 06:14:00;;;;;;;37.03;16.88;;;3.10;99.90;;;;;;5074234;28;20046;-80
2020/12/06 06:16:30;;;;;;;33.72;17.42;;;3.00;99.90;;;;;;5090542;28;20056;-80
2020/12/06 06:19:00;;;;;;;40.03;22.38;;;3.10;99.90;;;;;;5090962;28;20107;-80
2020/12/06 06:21:28;;;;;;;28.83;17.27;;;3.10;99.90;;;;;;5075565;28;20422;-80
2020/12/06 06:23:56;;;;;;;41.10;23.05;;;3.10;99.90;;;;;;5073920;28;20026;-80
2020/12/06 06:26:25;;;;;;;35.95;21.90;;;3.10;99.90;;;;;;5075156;28;20476;-80
2020/12/06 06:28:52;;;;;;;34.30;19.05;;;3.00;99.90;;;;;;5090728;28;20552;-80
2020/12/06 06:31:19;;;;;;;38.50;21.50;;;2.90;99.90;;;;;;5090889;28;20048;-80
2020/12/06 06:33:46;;;;;;;27.73;18.00;;;3.00;99.90;;;;;;5075014;28;20021;-81
2020/12/06 06:36:12;;;;;;;41.10;21.45;;;3.00;99.90;;;;;;5074938;28;20020;-80
2020/12/06 06:38:45;;;;;;;39.20;20.20;;;3.10;99.90;;;;;;5073576;28;20024;-80
2020/12/06 06:41:12;;;;;;;56.15;29.38;;;3.10;99.90;;;;;;5074916;28;20099;-80
2020/12/06 06:43:39;;;;;;;35.22;20.08;;;3.10;99.90;;;;;;5074799;28;20021;-81
2020/12/06 06:46:13;;;;;;;38.75;20.50;;;3.00;99.90;;;;;;5090079;28;20051;-80
2020/12/06 06:48:39;;;;;;;36.92;19.77;;;3.00;99.90;;;;;;5089556;28;20031;-80
2020/12/06 06:51:05;;;;;;;40.85;22.38;;;3.00;99.90;;;;;;5074637;28;20049;-80
2020/12/06 06:53:32;;;;;;;34.17;19.48;;;3.00;99.90;;;;;;5090208;28;20071;-80
2020/12/06 06:56:00;;;;;;;36.25;20.35;;;3.10;99.90;;;;;;5074825;28;20028;-80
2020/12/06 06:58:30;;;;;;;39.95;22.05;;;3.00;99.90;;;;;;5090003;28;20027;-80
2020/12/06 07:01:17;;;;;;;34.22;19.65;;;3.00;99.90;;;;;;5090058;28;20020;-80
2020/12/06 07:03:54;;;;;;;33.85;19.30;;;3.00;99.90;;;;;;5073129;28;20027;-81
2020/12/06 07:06:48;;;;;;;35.28;19.90;;;3.00;99.90;;;;;;5090027;28;20025;-81
2020/12/06 07:09:30;;;;;;;38.30;20.90;;;3.10;99.90;;;;;;5074286;28;20034;-80
2020/12/06 07:12:00;;;;;;;33.75;19.13;;;3.20;99.90;;;;;;5072972;28;20131;-80
2020/12/06 07:14:28;;;;;;;32.33;18.65;;;3.20;99.90;;;;;;5089856;28;20025;-81
2020/12/06 07:16:56;;;;;;;32.35;18.88;;;3.20;99.90;;;;;;5089451;28;20062;-81
2020/12/06 07:19:22;;;;;;;40.38;22.05;;;3.20;99.90;;;;;;5089736;28;20017;-80
2020/12/06 07:21:49;;;;;;;39.83;20.17;;;3.20;99.90;;;;;;5072750;28;20024;-81
2020/12/06 07:24:16;;;;;;;38.00;19.65;;;3.20;99.90;;;;;;5073956;28;20379;-80
2020/12/06 07:26:43;;;;;;;39.85;21.15;;;3.30;99.90;;;;;;5089619;28;20029;-80
2020/12/06 07:29:10;;;;;;;34.97;18.95;;;3.30;99.90;;;;;;5073972;28;20028;-81
2020/12/06 07:31:36;;;;;;;34.15;18.45;;;3.30;99.90;;;;;;5073875;28;20077;-81
2020/12/06 07:34:03;;;;;;;36.75;20.50;;;3.40;99.90;;;;;;5074136;28;20162;-80
2020/12/06 07:36:36;;;;;;;36.42;19.48;;;3.30;99.90;;;;;;5073767;28;20455;-81
2020/12/06 07:39:17;;;;;;;25.23;14.52;;;3.30;99.90;;;;;;5089411;28;20361;-81
2020/12/06 07:41:47;;;;;;;33.67;18.52;;;3.30;99.90;;;;;;5089286;28;20025;-81
2020/12/06 07:44:13;;;;;;;28.30;16.75;;;3.30;99.90;;;;;;5074006;28;20468;-81
2020/12/06 07:46:39;;;;;;;27.85;16.30;;;3.30;99.90;;;;;;5072342;28;20017;-80
2020/12/06 07:49:05;;;;;;;27.80;15.65;;;3.30;99.90;;;;;;5072216;28;20021;-81
2020/12/06 07:51:31;;;;;;;28.73;15.70;;;3.40;99.90;;;;;;5089184;28;20078;-81
2020/12/06 07:53:59;;;;;;;23.88;14.75;;;3.50;99.90;;;;;;5073620;28;20021;-80
2020/12/06 07:56:25;;;;;;;29.90;15.88;;;3.60;99.90;;;;;;5073444;28;20058;-81
2020/12/06 07:59:06;;;;;;;27.00;14.95;;;3.50;99.90;;;;;;5073442;28;20074;-81
2020/12/06 08:01:32;;;;;;;29.60;15.63;;;3.50;99.90;;;;;;5073886;28;20024;-81
2020/12/06 08:04:00;;;;;;;27.13;15.60;;;3.40;99.90;;;;;;5073452;28;20447;-81
2020/12/06 08:06:28;;;;;;;27.88;15.77;;;3.40;99.90;;;;;;5088990;28;20021;-80
2020/12/06 08:08:59;;;;;;;26.30;15.93;;;3.40;99.90;;;;;;5088963;28;20060;-80
2020/12/06 08:11:36;;;;;;;26.38;15.80;;;3.40;99.90;;;;;;5073402;28;20020;-80
2020/12/06 08:14:03;;;;;;;25.63;15.40;;;3.40;99.90;;;;;;5088984;28;20051;-80
2020/12/06 08:16:28;;;;;;;26.05;14.80;;;3.40;99.90;;;;;;5088652;28;20074;-80
2020/12/06 08:18:58;;;;;;;25.40;14.95;;;3.30;99.90;;;;;;5072037;28;20024;-81
2020/12/06 08:21:24;;;;;;;28.23;16.25;;;3.30;99.90;;;;;;5088773;28;20024;-80
2020/12/06 08:23:50;;;;;;;23.05;14.10;;;3.30;99.90;;;;;;5088792;28;20028;-80
2020/12/06 08:26:16;;;;;;;23.17;13.50;;;3.30;99.90;;;;;;5071967;28;20499;-80
2020/12/06 08:28:42;;;;;;;22.88;13.10;;;3.40;99.90;;;;;;5071976;28;20476;-79
2020/12/06 08:31:20;;;;;;;22.60;12.65;;;3.30;99.90;;;;;;5071945;28;20422;-80
2020/12/06 08:33:46;;;;;;;24.23;12.35;;;3.30;99.90;;;;;;5073197;28;20016;-79
2020/12/06 08:36:23;;;;;;;18.30;11.77;;;3.40;99.90;;;;;;5071900;28;20029;-80
2020/12/06 08:38:49;;;;;;;17.85;11.13;;;3.40;99.90;;;;;;5088646;28;20021;-80
2020/12/06 08:41:14;;;;;;;17.77;11.55;;;3.50;99.90;;;;;;5071792;28;20052;-80
2020/12/06 08:43:45;;;;;;;17.92;10.85;;;3.70;99.90;;;;;;5071761;28;20027;-80
2020/12/06 08:46:12;;;;;;;17.27;11.40;;;3.70;99.90;;;;;;5073035;28;20021;-79
2020/12/06 08:48:39;;;;;;;17.77;10.90;;;3.70;99.90;;;;;;5073029;28;20464;-79
2020/12/06 08:51:05;;;;;;;15.48;10.43;;;3.70;99.90;;;;;;5088581;28;20024;-79
2020/12/06 08:53:44;;;;;;;16.15;10.48;;;3.70;99.90;;;;;;5073003;28;20017;-80
2020/12/06 08:56:32;;;;;;;15.98;10.98;;;3.70;99.90;;;;;;5088542;28;20042;-80
2020/12/06 08:59:18;;;;;;;18.38;10.60;;;3.70;99.90;;;;;;5072923;28;20024;-80
2020/12/06 09:01:50;;;;;;;19.23;11.63;;;3.80;99.90;;;;;;5088687;28;20051;-79
2020/12/06 09:04:17;;;;;;;17.33;10.70;;;3.90;99.90;;;;;;5088433;28;20017;-79
2020/12/06 09:06:44;;;;;;;14.63;9.60;;;3.90;99.90;;;;;;5072859;28;20123;-79
2020/12/06 09:09:10;;;;;;;15.35;10.20;;;3.90;99.90;;;;;;5071601;28;20020;-80
2020/12/06 09:11:36;;;;;;;18.42;10.15;;;4.00;99.90;;;;;;5091112;28;20020;-79
2020/12/06 09:14:03;;;;;;;17.60;10.40;;;4.00;99.90;;;;;;5092176;28;20031;-81
2020/12/06 09:16:29;;;;;;;23.70;12.43;;;4.00;99.90;;;;;;5074708;28;20404;-80
2020/12/06 09:18:55;;;;;;;14.45;9.50;;;4.00;99.90;;;;;;5092031;28;20029;-79
2020/12/06 09:21:21;;;;;;;13.68;9.35;;;3.90;99.90;;;;;;5075074;28;20020;-79
2020/12/06 09:23:47;;;;;;;14.35;10.23;;;4.00;99.90;;;;;;5075006;28;20422;-79
2020/12/06 09:26:13;;;;;;;16.65;9.45;;;4.00;99.90;;;;;;5076475;28;20027;-79
2020/12/06 09:28:39;;;;;;;14.55;9.98;;;4.00;99.90;;;;;;5074806;28;20471;-79
2020/12/06 09:31:05;;;;;;;13.02;8.15;;;4.10;99.90;;;;;;5076147;28;20028;-79
2020/12/06 09:33:31;;;;;;;12.98;8.38;;;4.10;99.90;;;;;;5074851;28;20028;-79
2020/12/06 09:35:57;;;;;;;12.98;7.95;;;4.10;99.90;;;;;;5076134;28;20025;-79
2020/12/06 09:38:23;;;;;;;12.13;8.00;;;4.10;99.90;;;;;;5091591;28;20510;-79
2020/12/06 09:40:49;;;;;;;9.48;6.85;;;4.10;99.90;;;;;;5076009;28;20035;-78
2020/12/06 09:43:15;;;;;;;8.02;5.50;;;4.10;99.90;;;;;;5091833;28;20027;-78
2020/12/06 09:45:42;;;;;;;10.45;6.78;;;4.00;99.90;;;;;;5091552;28;20458;-79
2020/12/06 09:48:09;;;;;;;11.88;8.07;;;3.90;99.90;;;;;;5076181;28;20021;-78
2020/12/06 09:50:34;;;;;;;12.15;8.40;;;3.80;99.90;;;;;;5091412;28;20032;-79
2020/12/06 09:53:00;;;;;;;10.90;7.15;;;3.80;99.90;;;;;;5091432;28;20029;-79
2020/12/06 09:55:26;;;;;;;10.50;7.95;;;3.80;99.90;;;;;;5075748;28;20021;-81
2020/12/06 09:57:52;;;;;;;13.93;8.38;;;3.80;99.90;;;;;;5091152;28;20387;-78
2020/12/06 10:00:18;;;;;;;11.63;8.27;;;3.80;99.90;;;;;;5074381;28;20115;-78
2020/12/06 10:02:44;;;;;;;10.07;7.70;;;3.90;99.90;;;;;;5075603;28;20024;-78
2020/12/06 10:05:11;;;;;;;11.55;7.43;;;3.90;99.90;;;;;;5074232;28;20016;-78
2020/12/06 10:07:37;;;;;;;9.18;7.40;;;4.00;99.90;;;;;;5091040;28;20052;-77
2020/12/06 10:10:07;;;;;;;10.15;7.63;;;4.00;99.90;;;;;;5074166;28;20071;-78
2020/12/06 10:12:32;;;;;;;10.30;7.57;;;4.00;99.90;;;;;;5075438;28;20032;-78
2020/12/06 10:14:58;;;;;;;10.48;7.90;;;4.00;99.90;;;;;;5074130;28;20040;-79
2020/12/06 10:17:24;;;;;;;13.57;8.80;;;4.00;99.90;;;;;;5073824;28;20538;-79
2020/12/06 10:19:50;;;;;;;15.23;8.27;;;4.00;99.90;;;;;;5073989;28;20434;-79
2020/12/06 10:22:16;;;;;;;13.70;8.45;;;4.00;99.90;;;;;;5090561;28;20016;-79
2020/12/06 10:24:42;;;;;;;13.80;8.73;;;4.00;99.90;;;;;;5075126;28;20020;-78
2020/12/06 10:27:07;;;;;;;10.90;8.23;;;3.90;99.90;;;;;;5073812;28;20024;-78
2020/12/06 10:29:33;;;;;;;12.20;8.27;;;3.80;99.90;;;;;;5075593;28;20112;-78
2020/12/06 10:32:00;;;;;;;10.95;8.25;;;3.70;99.90;;;;;;5073913;28;20029;-78
2020/12/06 10:34:27;;;;;;;10.25;7.70;;;3.80;99.90;;;;;;5075056;28;20032;-78
2020/12/06 10:36:55;;;;;;;11.43;7.88;;;3.90;99.90;;;;;;5074871;28;20430;-78
2020/12/06 10:39:22;;;;;;;10.55;7.25;;;3.90;99.90;;;;;;5074943;28;20016;-78
2020/12/06 10:41:52;;;;;;;11.43;8.38;;;3.90;99.90;;;;;;5090496;28;20384;-79
2020/12/06 10:44:19;;;;;;;11.02;7.60;;;3.90;99.90;;;;;;5090403;28;20074;-78
2020/12/06 10:46:48;;;;;;;11.57;8.15;;;3.90;99.90;;;;;;5056827;28;20033;-80
2020/12/06 10:49:14;;;;;;;12.13;8.05;;;4.10;99.90;;;;;;5090357;28;20090;-78
2020/12/06 10:51:44;;;;;;;10.55;7.10;;;4.20;99.90;;;;;;5090303;28;20020;-79
2020/12/06 10:54:10;;;;;;;12.30;6.53;;;4.20;99.90;;;;;;5074609;28;20021;-78
2020/12/06 10:56:37;;;;;;;9.57;6.60;;;4.20;99.90;;;;;;5073180;28;20025;-78
2020/12/06 10:59:03;;;;;;;10.73;7.82;;;4.30;99.90;;;;;;5090149;28;20031;-78
2020/12/06 11:01:31;;;;;;;9.20;6.38;;;4.30;99.90;;;;;;5074741;28;20476;-78
2020/12/06 11:03:57;;;;;;;10.07;6.82;;;4.40;99.90;;;;;;5090170;28;20059;-78
2020/12/06 11:06:24;;;;;;;9.35;6.68;;;4.30;99.90;;;;;;5090069;28;20028;-78
2020/12/06 11:08:50;;;;;;;13.15;6.32;;;4.40;99.90;;;;;;5074373;28;20095;-78
2020/12/06 11:11:17;;;;;;;8.88;6.00;;;4.40;99.90;;;;;;5075079;28;20028;-78
2020/12/06 11:13:44;;;;;;;10.95;7.15;;;4.40;99.90;;;;;;5074270;28;20365;-78
2020/12/06 11:16:13;;;;;;;8.38;6.35;;;4.40;99.90;;;;;;5074577;28;20048;-79
2020/12/06 11:18:39;;;;;;;10.27;7.25;;;4.40;99.90;;;;;;5072903;28;20028;-78
2020/12/06 11:21:05;;;;;;;10.82;6.18;;;4.50;99.90;;;;;;5074069;28;20060;-78
2020/12/06 11:23:31;;;;;;;10.15;6.28;;;4.40;99.90;;;;;;5072836;28;20020;-79
2020/12/06 11:25:57;;;;;;;10.00;6.47;;;4.40;99.90;;;;;;5074140;28;20074;-78
2020/12/06 11:28:23;;;;;;;9.77;7.00;;;4.40;99.90;;;;;;5089714;28;20051;-78
2020/12/06 11:30:48;;;;;;;7.65;6.00;;;4.40;99.90;;;;;;5072981;28;20032;-78
2020/12/06 11:33:14;;;;;;;7.60;5.68;;;4.50;99.90;;;;;;5072035;28;20430;-78
2020/12/06 11:35:40;;;;;;;8.23;5.60;;;4.40;99.90;;;;;;5074106;28;20028;-78
2020/12/06 11:38:06;;;;;;;7.13;4.85;;;4.40;99.90;;;;;;5072395;28;20392;-78
2020/12/06 11:40:31;;;;;;;8.38;5.63;;;4.40;99.90;;;;;;5074318;28;20106;-78
2020/12/06 11:42:57;;;;;;;7.05;4.80;;;4.50;99.90;;;;;;5073789;28;20035;-79
2020/12/06 11:45:23;;;;;;;9.75;6.05;;;4.50;99.90;;;;;;5072521;28;20482;-78
2020/12/06 11:47:49;;;;;;;7.47;5.65;;;4.50;99.90;;;;;;5072334;28;20177;-79
2020/12/06 11:50:15;;;;;;;7.97;5.90;;;4.50;99.90;;;;;;5089338;28;20089;-78
2020/12/06 11:52:41;;;;;;;7.45;5.25;;;4.50;99.90;;;;;;5073772;28;20494;-79
2020/12/06 11:55:07;;;;;;;8.65;5.82;;;4.50;99.90;;;;;;5072668;28;20052;-79
2020/12/06 11:57:32;;;;;;;7.80;5.22;;;4.50;99.90;;;;;;5073947;28;20024;-79
2020/12/06 11:59:58;;;;;;;7.85;4.68;;;4.60;99.90;;;;;;5073595;28;20074;-79
2020/12/06 12:02:24;;;;;;;6.18;4.97;;;4.60;99.90;;;;;;5072313;28;20115;-78
2020/12/06 12:04:50;;;;;;;6.63;5.20;;;4.60;99.90;;;;;;5072286;28;20020;-79
2020/12/06 12:07:18;;;;;;;7.45;5.60;;;4.70;99.90;;;;;;5073736;28;20031;-79
2020/12/06 12:09:43;;;;;;;38.47;22.23;;;4.60;99.90;;;;;;5072374;28;20020;-78
2020/12/06 12:12:09;;;;;;;23.10;13.98;;;4.70;99.90;;;;;;5073939;28;20055;-78
2020/12/06 12:14:35;;;;;;;14.88;9.80;;;4.70;99.90;;;;;;5072177;28;20032;-78
2020/12/06 12:17:01;;;;;;;7.97;5.72;;;4.80;99.90;;;;;;5088693;28;20052;-78
2020/12/06 12:19:27;;;;;;;6.63;4.75;;;4.70;99.90;;;;;;5073435;28;20468;-78
2020/12/06 12:21:53;;;;;;;6.60;4.93;;;4.80;99.90;;;;;;5073367;28;20376;-79
2020/12/06 12:24:18;;;;;;;7.15;5.05;;;4.80;99.90;;;;;;5072065;28;20016;-78
2020/12/06 12:26:44;;;;;;;34.75;20.92;;;4.70;99.90;;;;;;5072050;28;20040;-78
2020/12/06 12:29:10;;;;;;;14.50;7.93;;;4.80;99.90;;;;;;5088787;28;20032;-79
2020/12/06 12:31:35;;;;;;;13.70;8.02;;;4.70;99.90;;;;;;5073522;28;20024;-79
2020/12/06 12:34:01;;;;;;;7.70;5.50;;;4.80;99.90;;;;;;5071990;28;20020;-78
2020/12/06 12:36:27;;;;;;;7.78;5.68;;;4.80;99.90;;;;;;5071962;28;20021;-78
2020/12/06 12:38:52;;;;;;;9.52;6.43;;;4.70;99.90;;;;;;5071874;28;20103;-78
2020/12/06 12:41:19;;;;;;;8.00;6.18;;;4.70;99.90;;;;;;5088755;28;20029;-78